sensor_id;sensor_type;location;lat;lon;timestamp;P1;durP1;ratioP1;P2;durP2;ratioP2
72720;SDS011;60835;50.974;10.322;2022-12-05T00:01:12;32.38;;;15.40;;
72720;SDS011;60835;50.974;10.322;2022-12-05T00:03:42;31.90;;;14.45;;
72720;SDS011;60835;50.974;10.322;2022-12-05T00:06:09;35.75;;;15.93;;
72720;SDS011;60835;50.974;10.322;2022-12-05T00:08:36;33.00;;;16.25;;
72720;SDS011;60835;50.974;10.322;2022-12-05T00:11:02;35.28;;;15.20;;
72720;SDS011;60835;50.974;10.322;2022-12-05T00:13:29;33.72;;;14.95;;
72720;SDS011;60835;50.974;10.322;2022-12-05T00:15:55;34.92;;;15.45;;
72720;SDS011;60835;50.974;10.322;2022-12-05T00:18:22;37.88;;;16.13;;
72720;SDS011;60835;50.974;10.322;2022-12-05T00:20:48;32.70;;;15.52;;
72720;SDS011;60835;50.974;10.322;2022-12-05T00:23:16;33.78;;;14.82;;
72720;SDS011;60835;50.974;10.322;2022-12-05T00:25:42;32.30;;;15.05;;
72720;SDS011;60835;50.974;10.322;2022-12-05T00:28:09;37.25;;;15.73;;
72720;SDS011;60835;50.974;10.322;2022-12-05T00:30:38;31.33;;;14.27;;
72720;SDS011;60835;50.974;10.322;2022-12-05T00:33:05;30.30;;;14.48;;
72720;SDS011;60835;50.974;10.322;2022-12-05T00:35:32;31.13;;;13.15;;
72720;SDS011;60835;50.974;10.322;2022-12-05T00:37:59;35.05;;;14.93;;
72720;SDS011;60835;50.974;10.322;2022-12-05T00:40:26;32.70;;;14.43;;
72720;SDS011;60835;50.974;10.322;2022-12-05T00:42:52;32.00;;;14.50;;
72720;SDS011;60835;50.974;10.322;2022-12-05T00:45:19;35.38;;;14.93;;
72720;SDS011;60835;50.974;10.322;2022-12-05T00:47:45;31.75;;;14.57;;
72720;SDS011;60835;50.974;10.322;2022-12-05T00:50:12;31.65;;;15.23;;
72720;SDS011;60835;50.974;10.322;2022-12-05T00:52:39;29.83;;;13.43;;
72720;SDS011;60835;50.974;10.322;2022-12-05T00:55:05;32.00;;;14.93;;
72720;SDS011;60835;50.974;10.322;2022-12-05T00:57:32;30.55;;;14.00;;
72720;SDS011;60835;50.974;10.322;2022-12-05T00:59:58;36.08;;;15.77;;
72720;SDS011;60835;50.974;10.322;2022-12-05T01:02:25;28.85;;;13.65;;
72720;SDS011;60835;50.974;10.322;2022-12-05T01:04:51;35.13;;;15.25;;
72720;SDS011;60835;50.974;10.322;2022-12-05T01:07:18;34.60;;;14.00;;
72720;SDS011;60835;50.974;10.322;2022-12-05T01:09:44;31.30;;;14.43;;
72720;SDS011;60835;50.974;10.322;2022-12-05T01:12:11;34.08;;;14.88;;
72720;SDS011;60835;50.974;10.322;2022-12-05T01:14:37;28.25;;;13.57;;
72720;SDS011;60835;50.974;10.322;2022-12-05T01:17:03;28.15;;;13.25;;
72720;SDS011;60835;50.974;10.322;2022-12-05T01:19:30;29.45;;;14.18;;
72720;SDS011;60835;50.974;10.322;2022-12-05T01:21:58;27.98;;;12.77;;
72720;SDS011;60835;50.974;10.322;2022-12-05T01:24:26;27.10;;;13.73;;
72720;SDS011;60835;50.974;10.322;2022-12-05T01:26:53;27.25;;;12.93;;
72720;SDS011;60835;50.974;10.322;2022-12-05T01:29:20;27.55;;;13.10;;
72720;SDS011;60835;50.974;10.322;2022-12-05T01:31:48;26.52;;;12.35;;
72720;SDS011;60835;50.974;10.322;2022-12-05T01:34:16;28.27;;;12.77;;
72720;SDS011;60835;50.974;10.322;2022-12-05T01:36:43;23.33;;;11.35;;
72720;SDS011;60835;50.974;10.322;2022-12-05T01:39:10;26.05;;;12.27;;
72720;SDS011;60835;50.974;10.322;2022-12-05T01:41:39;22.67;;;10.77;;
72720;SDS011;60835;50.974;10.322;2022-12-05T01:46:38;24.15;;;11.07;;
72720;SDS011;60835;50.974;10.322;2022-12-05T01:49:10;24.15;;;12.15;;
72720;SDS011;60835;50.974;10.322;2022-12-05T01:51:41;23.20;;;11.43;;
72720;SDS011;60835;50.974;10.322;2022-12-05T01:54:11;20.52;;;10.50;;
72720;SDS011;60835;50.974;10.322;2022-12-05T01:56:40;19.90;;;9.60;;
72720;SDS011;60835;50.974;10.322;2022-12-05T01:59:09;23.60;;;10.23;;
72720;SDS011;60835;50.974;10.322;2022-12-05T02:01:37;20.52;;;10.55;;
72720;SDS011;60835;50.974;10.322;2022-12-05T02:04:04;18.58;;;9.75;;
72720;SDS011;60835;50.974;10.322;2022-12-05T02:06:32;19.27;;;10.18;;
72720;SDS011;60835;50.974;10.322;2022-12-05T02:08:59;18.38;;;9.68;;
72720;SDS011;60835;50.974;10.322;2022-12-05T02:11:26;18.42;;;9.80;;
72720;SDS011;60835;50.974;10.322;2022-12-05T02:17:00;19.95;;;9.90;;
72720;SDS011;60835;50.974;10.322;2022-12-05T02:20:02;20.40;;;10.25;;
72720;SDS011;60835;50.974;10.322;2022-12-05T02:31:04;24.20;;;10.15;;
72720;SDS011;60835;50.974;10.322;2022-12-05T02:39:23;20.27;;;10.25;;
72720;SDS011;60835;50.974;10.322;2022-12-05T02:41:57;23.58;;;11.60;;
72720;SDS011;60835;50.974;10.322;2022-12-05T02:44:32;17.33;;;10.30;;
72720;SDS011;60835;50.974;10.322;2022-12-05T02:47:04;23.80;;;12.20;;
72720;SDS011;60835;50.974;10.322;2022-12-05T02:49:34;25.55;;;12.45;;
72720;SDS011;60835;50.974;10.322;2022-12-05T02:52:02;19.27;;;9.88;;
72720;SDS011;60835;50.974;10.322;2022-12-05T02:54:34;24.52;;;11.75;;
72720;SDS011;60835;50.974;10.322;2022-12-05T02:57:05;21.30;;;10.73;;
72720;SDS011;60835;50.974;10.322;2022-12-05T02:59:35;22.75;;;12.10;;
72720;SDS011;60835;50.974;10.322;2022-12-05T03:02:02;20.60;;;10.27;;
72720;SDS011;60835;50.974;10.322;2022-12-05T03:04:29;26.80;;;11.93;;
72720;SDS011;60835;50.974;10.322;2022-12-05T03:07:01;19.60;;;10.05;;
72720;SDS011;60835;50.974;10.322;2022-12-05T03:09:37;25.35;;;12.95;;
72720;SDS011;60835;50.974;10.322;2022-12-05T03:12:17;18.92;;;10.18;;
72720;SDS011;60835;50.974;10.322;2022-12-05T03:15:04;21.85;;;10.35;;
72720;SDS011;60835;50.974;10.322;2022-12-05T03:17:37;23.77;;;11.73;;
72720;SDS011;60835;50.974;10.322;2022-12-05T03:20:23;20.33;;;10.88;;
72720;SDS011;60835;50.974;10.322;2022-12-05T03:25:28;19.08;;;9.77;;
72720;SDS011;60835;50.974;10.322;2022-12-05T03:28:05;22.23;;;11.05;;
72720;SDS011;60835;50.974;10.322;2022-12-05T03:30:42;21.00;;;10.45;;
72720;SDS011;60835;50.974;10.322;2022-12-05T03:36:02;21.35;;;10.95;;
72720;SDS011;60835;50.974;10.322;2022-12-05T03:38:40;21.52;;;11.68;;
72720;SDS011;60835;50.974;10.322;2022-12-05T03:41:23;21.40;;;10.90;;
72720;SDS011;60835;50.974;10.322;2022-12-05T03:43:56;19.75;;;10.55;;
72720;SDS011;60835;50.974;10.322;2022-12-05T03:46:35;22.00;;;11.38;;
72720;SDS011;60835;50.974;10.322;2022-12-05T03:49:07;19.23;;;10.25;;
72720;SDS011;60835;50.974;10.322;2022-12-05T03:51:42;20.52;;;10.23;;
72720;SDS011;60835;50.974;10.322;2022-12-05T03:54:17;18.75;;;9.60;;
72720;SDS011;60835;50.974;10.322;2022-12-05T03:56:51;19.02;;;9.52;;
72720;SDS011;60835;50.974;10.322;2022-12-05T03:59:31;19.10;;;10.25;;
72720;SDS011;60835;50.974;10.322;2022-12-05T04:02:04;18.65;;;10.38;;
72720;SDS011;60835;50.974;10.322;2022-12-05T04:04:53;20.20;;;10.15;;
72720;SDS011;60835;50.974;10.322;2022-12-05T04:07:25;18.73;;;10.32;;
72720;SDS011;60835;50.974;10.322;2022-12-05T04:09:58;17.75;;;9.90;;
72720;SDS011;60835;50.974;10.322;2022-12-05T04:12:30;20.20;;;9.30;;
72720;SDS011;60835;50.974;10.322;2022-12-05T04:15:01;17.35;;;9.32;;
72720;SDS011;60835;50.974;10.322;2022-12-05T04:20:28;19.85;;;10.57;;
72720;SDS011;60835;50.974;10.322;2022-12-05T04:23:18;18.05;;;9.60;;
72720;SDS011;60835;50.974;10.322;2022-12-05T04:31:48;18.42;;;8.77;;
72720;SDS011;60835;50.974;10.322;2022-12-05T04:34:20;17.88;;;9.88;;
72720;SDS011;60835;50.974;10.322;2022-12-05T04:36:53;15.75;;;8.93;;
72720;SDS011;60835;50.974;10.322;2022-12-05T04:39:38;19.85;;;10.00;;
72720;SDS011;60835;50.974;10.322;2022-12-05T04:42:10;19.13;;;10.50;;
72720;SDS011;60835;50.974;10.322;2022-12-05T04:45:03;19.00;;;9.90;;
72720;SDS011;60835;50.974;10.322;2022-12-05T04:47:32;19.08;;;9.73;;
72720;SDS011;60835;50.974;10.322;2022-12-05T04:50:03;18.83;;;11.00;;
72720;SDS011;60835;50.974;10.322;2022-12-05T04:52:32;18.48;;;9.27;;
72720;SDS011;60835;50.974;10.322;2022-12-05T04:55:04;21.48;;;9.75;;
72720;SDS011;60835;50.974;10.322;2022-12-05T04:57:44;19.00;;;9.70;;
72720;SDS011;60835;50.974;10.322;2022-12-05T05:00:21;17.65;;;10.02;;
72720;SDS011;60835;50.974;10.322;2022-12-05T05:02:51;14.43;;;9.05;;
72720;SDS011;60835;50.974;10.322;2022-12-05T05:05:24;20.38;;;9.95;;
72720;SDS011;60835;50.974;10.322;2022-12-05T05:07:53;19.05;;;9.70;;
72720;SDS011;60835;50.974;10.322;2022-12-05T05:10:40;20.48;;;10.95;;
72720;SDS011;60835;50.974;10.322;2022-12-05T05:13:30;18.83;;;9.77;;
72720;SDS011;60835;50.974;10.322;2022-12-05T05:15:56;18.83;;;10.13;;
72720;SDS011;60835;50.974;10.322;2022-12-05T05:18:23;20.25;;;10.23;;
72720;SDS011;60835;50.974;10.322;2022-12-05T05:20:49;19.17;;;10.02;;
72720;SDS011;60835;50.974;10.322;2022-12-05T05:23:16;19.08;;;10.23;;
72720;SDS011;60835;50.974;10.322;2022-12-05T05:25:42;15.98;;;9.40;;
72720;SDS011;60835;50.974;10.322;2022-12-05T05:28:09;17.10;;;10.23;;
72720;SDS011;60835;50.974;10.322;2022-12-05T05:30:35;18.33;;;9.80;;
72720;SDS011;60835;50.974;10.322;2022-12-05T05:33:01;17.70;;;9.88;;
72720;SDS011;60835;50.974;10.322;2022-12-05T05:35:28;20.67;;;10.88;;
72720;SDS011;60835;50.974;10.322;2022-12-05T05:37:55;19.35;;;9.80;;
72720;SDS011;60835;50.974;10.322;2022-12-05T05:40:22;17.98;;;10.45;;
72720;SDS011;60835;50.974;10.322;2022-12-05T05:42:49;21.85;;;11.05;;
72720;SDS011;60835;50.974;10.322;2022-12-05T05:45:16;16.70;;;9.88;;
72720;SDS011;60835;50.974;10.322;2022-12-05T05:47:42;17.95;;;10.18;;
72720;SDS011;60835;50.974;10.322;2022-12-05T05:50:09;16.75;;;10.20;;
72720;SDS011;60835;50.974;10.322;2022-12-05T05:52:43;21.88;;;10.30;;
72720;SDS011;60835;50.974;10.322;2022-12-05T05:55:09;20.10;;;10.20;;
72720;SDS011;60835;50.974;10.322;2022-12-05T05:57:36;20.70;;;10.40;;
72720;SDS011;60835;50.974;10.322;2022-12-05T06:00:04;20.15;;;11.00;;
72720;SDS011;60835;50.974;10.322;2022-12-05T06:02:32;23.02;;;11.15;;
72720;SDS011;60835;50.974;10.322;2022-12-05T06:04:59;19.73;;;10.32;;
72720;SDS011;60835;50.974;10.322;2022-12-05T06:07:26;19.58;;;10.63;;
72720;SDS011;60835;50.974;10.322;2022-12-05T06:09:53;21.85;;;11.65;;
72720;SDS011;60835;50.974;10.322;2022-12-05T06:12:20;20.30;;;10.80;;
72720;SDS011;60835;50.974;10.322;2022-12-05T06:14:47;22.40;;;10.07;;
72720;SDS011;60835;50.974;10.322;2022-12-05T06:17:14;22.02;;;10.48;;
72720;SDS011;60835;50.974;10.322;2022-12-05T06:19:41;22.15;;;11.32;;
72720;SDS011;60835;50.974;10.322;2022-12-05T06:22:08;19.47;;;10.83;;
72720;SDS011;60835;50.974;10.322;2022-12-05T06:24:34;18.67;;;10.25;;
72720;SDS011;60835;50.974;10.322;2022-12-05T06:27:01;21.40;;;10.63;;
72720;SDS011;60835;50.974;10.322;2022-12-05T06:29:27;20.17;;;10.25;;
72720;SDS011;60835;50.974;10.322;2022-12-05T06:31:59;20.77;;;10.65;;
72720;SDS011;60835;50.974;10.322;2022-12-05T06:34:25;20.38;;;11.13;;
72720;SDS011;60835;50.974;10.322;2022-12-05T06:36:52;19.75;;;11.00;;
72720;SDS011;60835;50.974;10.322;2022-12-05T06:39:18;20.33;;;10.60;;
72720;SDS011;60835;50.974;10.322;2022-12-05T06:41:45;18.95;;;10.85;;
72720;SDS011;60835;50.974;10.322;2022-12-05T06:44:11;19.20;;;10.35;;
72720;SDS011;60835;50.974;10.322;2022-12-05T06:46:38;20.73;;;11.05;;
72720;SDS011;60835;50.974;10.322;2022-12-05T06:49:04;20.83;;;10.75;;
72720;SDS011;60835;50.974;10.322;2022-12-05T06:51:30;19.35;;;10.40;;
72720;SDS011;60835;50.974;10.322;2022-12-05T06:53:57;19.13;;;10.55;;
72720;SDS011;60835;50.974;10.322;2022-12-05T06:56:23;19.75;;;10.52;;
72720;SDS011;60835;50.974;10.322;2022-12-05T06:58:50;19.02;;;10.45;;
72720;SDS011;60835;50.974;10.322;2022-12-05T07:01:19;18.98;;;10.32;;
72720;SDS011;60835;50.974;10.322;2022-12-05T07:04:09;16.55;;;9.75;;
72720;SDS011;60835;50.974;10.322;2022-12-05T07:06:42;19.75;;;11.00;;
72720;SDS011;60835;50.974;10.322;2022-12-05T07:09:15;18.23;;;10.75;;
72720;SDS011;60835;50.974;10.322;2022-12-05T07:11:47;18.20;;;10.40;;
72720;SDS011;60835;50.974;10.322;2022-12-05T07:14:15;20.05;;;10.73;;
72720;SDS011;60835;50.974;10.322;2022-12-05T07:17:02;16.05;;;9.95;;
72720;SDS011;60835;50.974;10.322;2022-12-05T07:19:29;19.98;;;10.05;;
72720;SDS011;60835;50.974;10.322;2022-12-05T07:21:56;18.77;;;10.20;;
72720;SDS011;60835;50.974;10.322;2022-12-05T07:24:22;16.63;;;9.82;;
72720;SDS011;60835;50.974;10.322;2022-12-05T07:26:49;16.40;;;9.23;;
72720;SDS011;60835;50.974;10.322;2022-12-05T07:29:16;17.77;;;10.18;;
72720;SDS011;60835;50.974;10.322;2022-12-05T07:31:42;18.85;;;9.88;;
72720;SDS011;60835;50.974;10.322;2022-12-05T07:34:09;22.85;;;11.68;;
72720;SDS011;60835;50.974;10.322;2022-12-05T07:36:35;19.92;;;11.43;;
72720;SDS011;60835;50.974;10.322;2022-12-05T07:39:02;29.77;;;14.88;;
72720;SDS011;60835;50.974;10.322;2022-12-05T07:41:30;33.08;;;15.68;;
72720;SDS011;60835;50.974;10.322;2022-12-05T07:43:58;25.35;;;12.65;;
72720;SDS011;60835;50.974;10.322;2022-12-05T07:46:26;19.52;;;11.02;;
72720;SDS011;60835;50.974;10.322;2022-12-05T07:48:56;19.25;;;11.57;;
72720;SDS011;60835;50.974;10.322;2022-12-05T07:51:23;22.90;;;11.38;;
72720;SDS011;60835;50.974;10.322;2022-12-05T07:53:49;20.38;;;11.82;;
72720;SDS011;60835;50.974;10.322;2022-12-05T07:56:17;18.08;;;10.45;;
72720;SDS011;60835;50.974;10.322;2022-12-05T07:58:45;22.20;;;11.75;;
72720;SDS011;60835;50.974;10.322;2022-12-05T08:01:16;16.95;;;10.45;;
72720;SDS011;60835;50.974;10.322;2022-12-05T08:03:52;21.23;;;10.88;;
72720;SDS011;60835;50.974;10.322;2022-12-05T08:06:21;21.60;;;11.57;;
72720;SDS011;60835;50.974;10.322;2022-12-05T08:08:50;21.70;;;12.30;;
72720;SDS011;60835;50.974;10.322;2022-12-05T08:11:18;21.52;;;12.13;;
72720;SDS011;60835;50.974;10.322;2022-12-05T08:13:49;24.27;;;13.93;;
72720;SDS011;60835;50.974;10.322;2022-12-05T08:16:17;23.33;;;12.75;;
72720;SDS011;60835;50.974;10.322;2022-12-05T08:18:46;23.02;;;13.27;;
72720;SDS011;60835;50.974;10.322;2022-12-05T08:21:16;21.20;;;12.40;;
72720;SDS011;60835;50.974;10.322;2022-12-05T08:23:44;25.48;;;13.98;;
72720;SDS011;60835;50.974;10.322;2022-12-05T08:26:15;22.83;;;13.02;;
72720;SDS011;60835;50.974;10.322;2022-12-05T08:28:59;27.13;;;13.68;;
72720;SDS011;60835;50.974;10.322;2022-12-05T08:31:31;22.77;;;13.43;;
72720;SDS011;60835;50.974;10.322;2022-12-05T08:34:02;25.80;;;13.15;;
72720;SDS011;60835;50.974;10.322;2022-12-05T08:36:30;28.20;;;13.80;;
72720;SDS011;60835;50.974;10.322;2022-12-05T08:38:58;25.25;;;12.50;;
72720;SDS011;60835;50.974;10.322;2022-12-05T08:41:26;27.27;;;12.95;;
72720;SDS011;60835;50.974;10.322;2022-12-05T08:43:56;24.20;;;12.48;;
72720;SDS011;60835;50.974;10.322;2022-12-05T08:46:23;25.20;;;12.27;;
72720;SDS011;60835;50.974;10.322;2022-12-05T08:48:50;20.90;;;11.43;;
72720;SDS011;60835;50.974;10.322;2022-12-05T08:51:17;16.38;;;9.65;;
72720;SDS011;60835;50.974;10.322;2022-12-05T08:53:43;18.10;;;10.52;;
72720;SDS011;60835;50.974;10.322;2022-12-05T08:56:10;19.27;;;10.35;;
72720;SDS011;60835;50.974;10.322;2022-12-05T08:58:38;17.60;;;10.45;;
72720;SDS011;60835;50.974;10.322;2022-12-05T09:01:09;18.35;;;9.43;;
72720;SDS011;60835;50.974;10.322;2022-12-05T09:03:37;17.10;;;9.25;;
72720;SDS011;60835;50.974;10.322;2022-12-05T09:08:37;15.77;;;9.32;;
72720;SDS011;60835;50.974;10.322;2022-12-05T09:11:05;19.75;;;9.50;;
72720;SDS011;60835;50.974;10.322;2022-12-05T09:13:33;15.63;;;9.77;;
72720;SDS011;60835;50.974;10.322;2022-12-05T09:16:11;16.52;;;8.82;;
72720;SDS011;60835;50.974;10.322;2022-12-05T09:18:39;16.95;;;10.40;;
72720;SDS011;60835;50.974;10.322;2022-12-05T09:21:07;16.33;;;9.15;;
72720;SDS011;60835;50.974;10.322;2022-12-05T09:23:35;16.92;;;9.40;;
72720;SDS011;60835;50.974;10.322;2022-12-05T09:26:03;18.08;;;10.32;;
72720;SDS011;60835;50.974;10.322;2022-12-05T09:28:31;15.00;;;8.73;;
72720;SDS011;60835;50.974;10.322;2022-12-05T09:31:00;18.98;;;9.32;;
72720;SDS011;60835;50.974;10.322;2022-12-05T09:33:29;18.17;;;10.27;;
72720;SDS011;60835;50.974;10.322;2022-12-05T09:35:57;17.40;;;9.85;;
72720;SDS011;60835;50.974;10.322;2022-12-05T09:38:23;21.35;;;11.70;;
72720;SDS011;60835;50.974;10.322;2022-12-05T09:40:52;22.55;;;10.60;;
72720;SDS011;60835;50.974;10.322;2022-12-05T09:43:38;18.92;;;9.90;;
72720;SDS011;60835;50.974;10.322;2022-12-05T09:46:20;18.48;;;9.95;;
72720;SDS011;60835;50.974;10.322;2022-12-05T09:49:01;22.40;;;11.52;;
72720;SDS011;60835;50.974;10.322;2022-12-05T09:51:30;20.52;;;11.23;;
72720;SDS011;60835;50.974;10.322;2022-12-05T09:53:57;22.27;;;11.43;;
72720;SDS011;60835;50.974;10.322;2022-12-05T09:56:27;19.73;;;11.60;;
72720;SDS011;60835;50.974;10.322;2022-12-05T09:58:56;22.23;;;12.45;;
72720;SDS011;60835;50.974;10.322;2022-12-05T10:01:35;17.67;;;11.00;;
72720;SDS011;60835;50.974;10.322;2022-12-05T10:06:53;18.98;;;10.38;;
72720;SDS011;60835;50.974;10.322;2022-12-05T10:11:57;18.45;;;10.43;;
72720;SDS011;60835;50.974;10.322;2022-12-05T10:15:00;21.63;;;12.23;;
72720;SDS011;60835;50.974;10.322;2022-12-05T10:17:40;18.88;;;10.38;;
72720;SDS011;60835;50.974;10.322;2022-12-05T10:20:12;20.65;;;11.18;;
72720;SDS011;60835;50.974;10.322;2022-12-05T10:22:49;22.05;;;11.27;;
72720;SDS011;60835;50.974;10.322;2022-12-05T10:25:22;22.30;;;10.82;;
72720;SDS011;60835;50.974;10.322;2022-12-05T10:27:57;22.00;;;11.52;;
72720;SDS011;60835;50.974;10.322;2022-12-05T10:30:29;16.77;;;9.60;;
72720;SDS011;60835;50.974;10.322;2022-12-05T10:33:03;21.45;;;11.60;;
72720;SDS011;60835;50.974;10.322;2022-12-05T10:35:40;27.13;;;12.15;;
72720;SDS011;60835;50.974;10.322;2022-12-05T10:38:13;19.48;;;11.55;;
72720;SDS011;60835;50.974;10.322;2022-12-05T10:40:42;28.35;;;14.13;;
72720;SDS011;60835;50.974;10.322;2022-12-05T10:43:12;23.08;;;12.57;;
72720;SDS011;60835;50.974;10.322;2022-12-05T10:45:42;19.80;;;11.35;;
72720;SDS011;60835;50.974;10.322;2022-12-05T10:48:11;18.80;;;10.90;;
72720;SDS011;60835;50.974;10.322;2022-12-05T10:50:39;21.77;;;11.77;;
72720;SDS011;60835;50.974;10.322;2022-12-05T10:53:12;21.02;;;12.02;;
72720;SDS011;60835;50.974;10.322;2022-12-05T10:55:42;18.85;;;10.48;;
72720;SDS011;60835;50.974;10.322;2022-12-05T10:58:32;22.60;;;12.07;;
72720;SDS011;60835;50.974;10.322;2022-12-05T11:01:06;22.80;;;11.35;;
72720;SDS011;60835;50.974;10.322;2022-12-05T11:03:36;20.10;;;10.63;;
72720;SDS011;60835;50.974;10.322;2022-12-05T11:08:51;19.08;;;11.25;;
72720;SDS011;60835;50.974;10.322;2022-12-05T11:11:35;19.50;;;11.90;;
72720;SDS011;60835;50.974;10.322;2022-12-05T11:14:05;21.55;;;11.20;;
72720;SDS011;60835;50.974;10.322;2022-12-05T11:16:50;25.40;;;13.10;;
72720;SDS011;60835;50.974;10.322;2022-12-05T11:19:37;21.08;;;12.48;;
72720;SDS011;60835;50.974;10.322;2022-12-05T11:22:04;18.70;;;10.60;;
72720;SDS011;60835;50.974;10.322;2022-12-05T11:24:34;20.35;;;11.50;;
72720;SDS011;60835;50.974;10.322;2022-12-05T11:27:18;20.52;;;11.38;;
72720;SDS011;60835;50.974;10.322;2022-12-05T11:32:29;19.20;;;10.70;;
72720;SDS011;60835;50.974;10.322;2022-12-05T11:46:25;20.75;;;11.65;;
72720;SDS011;60835;50.974;10.322;2022-12-05T11:52:14;19.35;;;11.50;;
72720;SDS011;60835;50.974;10.322;2022-12-05T11:55:13;22.13;;;11.50;;
72720;SDS011;60835;50.974;10.322;2022-12-05T11:57:46;20.63;;;12.18;;
72720;SDS011;60835;50.974;10.322;2022-12-05T12:00:55;20.95;;;11.98;;
72720;SDS011;60835;50.974;10.322;2022-12-05T12:04:12;18.65;;;11.18;;
72720;SDS011;60835;50.974;10.322;2022-12-05T12:06:52;20.13;;;11.45;;
72720;SDS011;60835;50.974;10.322;2022-12-05T12:09:36;22.20;;;12.35;;
72720;SDS011;60835;50.974;10.322;2022-12-05T12:15:37;23.92;;;13.23;;
72720;SDS011;60835;50.974;10.322;2022-12-05T12:18:23;23.60;;;11.65;;
72720;SDS011;60835;50.974;10.322;2022-12-05T12:21:17;21.35;;;12.63;;
72720;SDS011;60835;50.974;10.322;2022-12-05T12:26:25;23.38;;;13.00;;
72720;SDS011;60835;50.974;10.322;2022-12-05T12:32:54;20.20;;;11.25;;
72720;SDS011;60835;50.974;10.322;2022-12-05T12:43:12;19.02;;;10.73;;
72720;SDS011;60835;50.974;10.322;2022-12-05T12:46:10;18.40;;;10.70;;
72720;SDS011;60835;50.974;10.322;2022-12-05T12:51:23;20.38;;;10.93;;
72720;SDS011;60835;50.974;10.322;2022-12-05T12:53:53;17.92;;;10.40;;
72720;SDS011;60835;50.974;10.322;2022-12-05T13:00:00;20.33;;;10.80;;
72720;SDS011;60835;50.974;10.322;2022-12-05T13:02:36;21.42;;;10.30;;
72720;SDS011;60835;50.974;10.322;2022-12-05T13:05:26;19.67;;;10.65;;
72720;SDS011;60835;50.974;10.322;2022-12-05T13:10:50;24.58;;;11.23;;
72720;SDS011;60835;50.974;10.322;2022-12-05T13:13:36;20.70;;;10.75;;
72720;SDS011;60835;50.974;10.322;2022-12-05T13:16:05;21.20;;;11.15;;
72720;SDS011;60835;50.974;10.322;2022-12-05T13:18:33;28.90;;;15.13;;
72720;SDS011;60835;50.974;10.322;2022-12-05T13:21:02;18.35;;;10.40;;
72720;SDS011;60835;50.974;10.322;2022-12-05T13:23:33;24.00;;;12.45;;
72720;SDS011;60835;50.974;10.322;2022-12-05T13:26:07;21.40;;;11.73;;
72720;SDS011;60835;50.974;10.322;2022-12-05T13:28:37;20.38;;;11.52;;
72720;SDS011;60835;50.974;10.322;2022-12-05T13:31:15;20.73;;;9.95;;
72720;SDS011;60835;50.974;10.322;2022-12-05T13:33:45;19.60;;;11.18;;
72720;SDS011;60835;50.974;10.322;2022-12-05T13:36:20;26.73;;;13.00;;
72720;SDS011;60835;50.974;10.322;2022-12-05T13:39:14;22.98;;;11.40;;
72720;SDS011;60835;50.974;10.322;2022-12-05T13:42:04;18.40;;;10.10;;
72720;SDS011;60835;50.974;10.322;2022-12-05T13:44:47;22.55;;;11.18;;
72720;SDS011;60835;50.974;10.322;2022-12-05T13:47:25;19.15;;;10.55;;
72720;SDS011;60835;50.974;10.322;2022-12-05T13:52:50;20.77;;;11.00;;
72720;SDS011;60835;50.974;10.322;2022-12-05T13:58:02;23.52;;;11.40;;
72720;SDS011;60835;50.974;10.322;2022-12-05T14:00:49;23.38;;;11.07;;
72720;SDS011;60835;50.974;10.322;2022-12-05T14:05:50;18.50;;;10.00;;
72720;SDS011;60835;50.974;10.322;2022-12-05T14:15:51;22.65;;;12.05;;
72720;SDS011;60835;50.974;10.322;2022-12-05T14:18:30;20.92;;;12.00;;
72720;SDS011;60835;50.974;10.322;2022-12-05T14:21:11;20.98;;;11.35;;
72720;SDS011;60835;50.974;10.322;2022-12-05T14:34:54;21.58;;;11.55;;
72720;SDS011;60835;50.974;10.322;2022-12-05T14:37:42;23.85;;;11.15;;
72720;SDS011;60835;50.974;10.322;2022-12-05T14:40:34;20.65;;;10.95;;
72720;SDS011;60835;50.974;10.322;2022-12-05T14:43:05;19.40;;;10.77;;
72720;SDS011;60835;50.974;10.322;2022-12-05T14:50:48;25.55;;;13.35;;
72720;SDS011;60835;50.974;10.322;2022-12-05T14:55:52;28.20;;;13.88;;
72720;SDS011;60835;50.974;10.322;2022-12-05T14:58:36;26.52;;;13.25;;
72720;SDS011;60835;50.974;10.322;2022-12-05T15:01:16;21.02;;;11.93;;
72720;SDS011;60835;50.974;10.322;2022-12-05T15:06:25;21.02;;;11.32;;
72720;SDS011;60835;50.974;10.322;2022-12-05T15:08:54;23.60;;;12.88;;
72720;SDS011;60835;50.974;10.322;2022-12-05T15:11:43;22.02;;;11.52;;
72720;SDS011;60835;50.974;10.322;2022-12-05T15:14:21;20.33;;;11.40;;
72720;SDS011;60835;50.974;10.322;2022-12-05T15:16:56;20.70;;;11.07;;
72720;SDS011;60835;50.974;10.322;2022-12-05T15:19:26;22.50;;;12.00;;
72720;SDS011;60835;50.974;10.322;2022-12-05T15:21:57;24.45;;;12.02;;
72720;SDS011;60835;50.974;10.322;2022-12-05T15:24:35;19.15;;;9.93;;
72720;SDS011;60835;50.974;10.322;2022-12-05T15:27:02;18.73;;;10.00;;
72720;SDS011;60835;50.974;10.322;2022-12-05T15:29:31;21.50;;;10.85;;
72720;SDS011;60835;50.974;10.322;2022-12-05T15:32:05;21.92;;;11.65;;
72720;SDS011;60835;50.974;10.322;2022-12-05T15:35:00;25.27;;;13.00;;
72720;SDS011;60835;50.974;10.322;2022-12-05T15:37:33;23.70;;;11.57;;
72720;SDS011;60835;50.974;10.322;2022-12-05T15:40:10;25.15;;;13.55;;
72720;SDS011;60835;50.974;10.322;2022-12-05T15:42:43;25.27;;;11.60;;
72720;SDS011;60835;50.974;10.322;2022-12-05T15:47:39;22.60;;;12.30;;
72720;SDS011;60835;50.974;10.322;2022-12-05T15:50:52;22.88;;;11.25;;
72720;SDS011;60835;50.974;10.322;2022-12-05T15:55:45;19.95;;;10.82;;
72720;SDS011;60835;50.974;10.322;2022-12-05T15:58:29;19.08;;;10.48;;
72720;SDS011;60835;50.974;10.322;2022-12-05T16:01:03;22.63;;;11.48;;
72720;SDS011;60835;50.974;10.322;2022-12-05T16:06:28;27.17;;;11.57;;
72720;SDS011;60835;50.974;10.322;2022-12-05T16:08:57;21.73;;;11.73;;
72720;SDS011;60835;50.974;10.322;2022-12-05T16:11:25;21.88;;;11.52;;
72720;SDS011;60835;50.974;10.322;2022-12-05T16:13:57;22.77;;;12.25;;
72720;SDS011;60835;50.974;10.322;2022-12-05T16:16:28;22.02;;;11.65;;
72720;SDS011;60835;50.974;10.322;2022-12-05T16:19:05;24.65;;;12.13;;
72720;SDS011;60835;50.974;10.322;2022-12-05T16:21:44;20.27;;;11.00;;
72720;SDS011;60835;50.974;10.322;2022-12-05T16:24:21;23.58;;;11.25;;
72720;SDS011;60835;50.974;10.322;2022-12-05T16:32:46;19.05;;;10.57;;
72720;SDS011;60835;50.974;10.322;2022-12-05T16:38:04;20.33;;;10.68;;
72720;SDS011;60835;50.974;10.322;2022-12-05T16:40:35;25.10;;;12.77;;
72720;SDS011;60835;50.974;10.322;2022-12-05T16:43:04;23.15;;;11.48;;
72720;SDS011;60835;50.974;10.322;2022-12-05T16:45:44;21.63;;;10.75;;
72720;SDS011;60835;50.974;10.322;2022-12-05T16:48:13;22.65;;;11.75;;
72720;SDS011;60835;50.974;10.322;2022-12-05T16:50:44;21.13;;;11.30;;
72720;SDS011;60835;50.974;10.322;2022-12-05T16:53:19;20.25;;;10.52;;
72720;SDS011;60835;50.974;10.322;2022-12-05T16:55:52;18.60;;;10.27;;
72720;SDS011;60835;50.974;10.322;2022-12-05T16:58:20;15.30;;;8.70;;
72720;SDS011;60835;50.974;10.322;2022-12-05T17:00:55;21.00;;;10.17;;
72720;SDS011;60835;50.974;10.322;2022-12-05T17:03:24;13.65;;;7.43;;